createdAt,value
2022-10-02T00:03:58.913Z,4.17
2022-10-02T00:08:43.309Z,6.53
2022-10-02T00:13:30.347Z,1.70
2022-10-02T00:18:20.118Z,5.53
2022-10-02T00:23:09.341Z,4.30
2022-10-02T00:28:07.451Z,3.23
2022-10-02T00:33:04.880Z,2.80
2022-10-02T00:37:57.860Z,4.07
2022-10-02T00:43:11.287Z,4.40
2022-10-02T00:48:04.533Z,2.73
2022-10-02T00:53:15.183Z,2.10
2022-10-02T00:58:12.338Z,1.73
2022-10-02T01:03:11.945Z,1.63
2022-10-02T01:07:57.479Z,1.80
2022-10-02T01:12:41.098Z,1.83
2022-10-02T01:17:27.107Z,1.50
2022-10-02T01:22:18.849Z,2.00
2022-10-02T01:27:03.880Z,3.63
2022-10-02T01:31:47.327Z,2.27
2022-10-02T01:36:32.840Z,3.47
2022-10-02T01:41:16.421Z,2.60
2022-10-02T01:46:09.023Z,3.63
2022-10-02T01:51:05.834Z,6.03
2022-10-02T01:56:00.928Z,6.63
2022-10-02T02:00:55.431Z,7.20
2022-10-02T02:05:51.180Z,5.87
2022-10-02T02:10:46.359Z,4.37
2022-10-02T02:15:38.045Z,7.87
2022-10-02T02:20:27.912Z,8.37
2022-10-02T02:25:18.139Z,11.47
2022-10-02T02:30:06.719Z,10.70
2022-10-02T02:34:54.075Z,12.07
2022-10-02T02:39:42.396Z,11.93
2022-10-02T02:44:32.016Z,12.13
2022-10-02T02:49:15.860Z,14.40
2022-10-02T02:54:06.165Z,12.07
2022-10-02T02:58:56.766Z,11.50
2022-10-02T03:03:41.691Z,10.10
2022-10-02T03:08:28.234Z,9.90
2022-10-02T03:13:30.669Z,10.97
2022-10-02T03:18:31.173Z,9.00
2022-10-02T03:23:24.134Z,8.50
2022-10-02T03:28:13.217Z,8.50
2022-10-02T03:33:01.203Z,5.80
2022-10-02T03:37:48.938Z,6.23
2022-10-02T03:42:36.203Z,6.20
2022-10-02T03:47:19.621Z,7.80
2022-10-02T03:52:03.387Z,8.47
2022-10-02T03:56:56.115Z,9.03
2022-10-02T04:01:49.288Z,8.50
2022-10-02T04:06:43.663Z,10.40
2022-10-02T04:11:33.726Z,9.43
2022-10-02T04:16:21.591Z,8.53
2022-10-02T04:21:11.945Z,7.80
2022-10-02T04:26:02.515Z,9.60
2022-10-02T04:30:45.911Z,7.00
2022-10-02T04:35:34.931Z,7.43
2022-10-02T04:40:40.064Z,9.10
2022-10-02T04:45:40.442Z,8.73
2022-10-02T04:50:47.431Z,9.87
2022-10-02T04:55:47.116Z,5.83
2022-10-02T05:00:36.472Z,4.57
2022-10-02T05:05:26.547Z,7.87
2022-10-02T05:10:38.067Z,5.60
2022-10-02T05:15:45.517Z,6.27
2022-10-02T05:20:58.249Z,7.30
2022-10-02T05:26:00.642Z,6.27
2022-10-02T05:30:52.107Z,5.23
2022-10-02T05:35:53.335Z,6.43
2022-10-02T05:40:42.810Z,5.63
2022-10-02T05:45:30.972Z,4.73
2022-10-02T05:50:19.705Z,7.00
2022-10-02T05:55:14.756Z,12.83
2022-10-02T06:00:06.190Z,11.37
2022-10-02T06:04:58.730Z,8.57
2022-10-02T06:09:49.028Z,9.40
2022-10-02T06:14:35.811Z,10.57
2022-10-02T06:19:24.964Z,7.40
2022-10-02T06:24:16.509Z,7.97
2022-10-02T06:29:05.595Z,4.63
2022-10-02T06:33:49.745Z,8.10
2022-10-02T06:38:47.030Z,6.90
2022-10-02T06:44:06.040Z,6.03
2022-10-02T06:48:58.807Z,5.20
2022-10-02T06:54:01.539Z,4.50
2022-10-02T06:59:04.849Z,3.93
2022-10-02T07:04:12.924Z,3.10
2022-10-02T07:09:25.465Z,6.67
2022-10-02T07:14:25.588Z,2.90
2022-10-02T07:19:35.312Z,2.00
2022-10-02T07:24:37.265Z,74.07
2022-10-02T07:29:44.401Z,64.40
2022-10-02T07:34:40.060Z,12.37
2022-10-02T07:39:36.066Z,2.47
2022-10-02T07:44:34.546Z,1.53
2022-10-02T07:49:38.515Z,1.60
2022-10-02T07:54:35.522Z,4.73
2022-10-02T07:59:20.105Z,2.30
2022-10-02T08:04:08.302Z,4.23
2022-10-02T08:08:56.975Z,2.83
2022-10-02T08:13:46.026Z,2.07
2022-10-02T08:18:36.150Z,3.10
2022-10-02T08:23:29.312Z,3.87
2022-10-02T08:28:22.604Z,3.73
2022-10-02T08:33:17.751Z,2.20
2022-10-02T08:38:30.261Z,3.13
2022-10-02T08:43:59.651Z,4.57
2022-10-02T08:49:27.960Z,1.80
2022-10-02T08:54:36.913Z,2.27
2022-10-02T08:59:53.955Z,2.20
2022-10-02T09:05:19.967Z,1.90
2022-10-02T09:10:50.382Z,1.50
2022-10-02T09:15:47.176Z,1.60
2022-10-02T09:20:43.738Z,2.50
2022-10-02T09:25:38.023Z,1.93
2022-10-02T09:30:28.439Z,2.33
2022-10-02T09:35:51.788Z,1.37
2022-10-02T09:41:07.931Z,1.93
2022-10-02T09:46:38.657Z,2.00
2022-10-02T09:52:00.399Z,3.00
2022-10-02T09:57:17.901Z,4.53
2022-10-02T10:02:32.089Z,3.47
2022-10-02T10:07:58.925Z,2.43
2022-10-02T10:13:20.528Z,3.93
2022-10-02T10:18:39.548Z,4.17
2022-10-02T10:23:54.763Z,1.90
2022-10-02T10:29:04.930Z,1.30
2022-10-02T10:34:28.413Z,3.63
2022-10-02T10:39:47.616Z,2.50
2022-10-02T10:45:08.901Z,1.83
2022-10-02T10:50:28.240Z,1.60
2022-10-02T10:55:20.257Z,2.87
2022-10-02T11:00:22.181Z,4.33
2022-10-02T11:05:29.338Z,2.57
2022-10-02T11:10:33.876Z,6.23
2022-10-02T11:15:33.100Z,3.07
2022-10-02T11:20:32.455Z,6.70
2022-10-02T11:25:39.664Z,5.87
2022-10-02T11:30:26.900Z,5.40
2022-10-02T11:35:42.407Z,3.67
2022-10-02T11:40:40.453Z,4.00
2022-10-02T11:45:47.148Z,4.80
2022-10-02T11:50:47.912Z,6.43
2022-10-02T11:55:46.401Z,4.20
2022-10-02T12:01:13.748Z,3.57
2022-10-02T12:06:05.777Z,3.10
2022-10-02T12:10:57.719Z,3.73
2022-10-02T12:15:51.729Z,2.47
2022-10-02T12:21:12.959Z,5.23
2022-10-02T12:26:20.333Z,1.23
2022-10-02T12:31:10.664Z,1.30
2022-10-02T12:36:16.419Z,0.50
2022-10-02T12:41:09.370Z,3.53
2022-10-02T12:46:17.483Z,1.70
2022-10-02T12:51:35.724Z,0.33
2022-10-02T12:56:46.399Z,0.33
2022-10-02T13:02:26.425Z,0.83
2022-10-02T13:08:00.276Z,0.50
2022-10-02T13:12:56.310Z,0.30
2022-10-02T13:17:46.954Z,0.20
2022-10-02T13:22:42.502Z,0.47
2022-10-02T13:27:38.264Z,0.10
2022-10-02T13:32:50.250Z,1.87
2022-10-02T13:37:48.064Z,3.70
2022-10-02T13:42:41.496Z,0.70
2022-10-02T13:47:40.383Z,0.40
2022-10-02T13:52:33.297Z,1.03
2022-10-02T13:57:29.099Z,0.50
2022-10-02T14:02:25.123Z,1.37
2022-10-02T14:07:23.279Z,0.40
2022-10-02T14:12:28.969Z,0.30
2022-10-02T14:17:21.556Z,0.83
2022-10-02T14:22:17.498Z,2.13
2022-10-02T14:27:11.236Z,5.83
2022-10-02T14:32:18.762Z,6.03
2022-10-02T14:37:30.563Z,0.53
2022-10-02T14:42:30.143Z,0.22
2022-10-02T14:47:28.019Z,0.80
2022-10-02T14:52:37.297Z,0.82
2022-10-02T14:57:36.616Z,1.48
2022-10-02T15:02:44.953Z,3.13
2022-10-02T15:07:30.188Z,0.73
2022-10-02T15:12:22.618Z,0.43
2022-10-02T15:17:30.257Z,0.52
2022-10-02T15:22:20.834Z,0.70
2022-10-02T15:27:24.095Z,0.60
2022-10-02T15:32:40.544Z,1.02
2022-10-02T15:37:34.119Z,0.45
2022-10-02T15:42:27.756Z,0.40
2022-10-02T15:47:38.527Z,0.93
2022-10-02T15:52:34.020Z,0.65
2022-10-02T15:57:40.080Z,2.00
2022-10-02T16:02:36.769Z,0.20
2022-10-02T16:07:57.547Z,1.73
2022-10-02T16:13:11.689Z,0.60
2022-10-02T16:18:15.479Z,1.13
2022-10-02T16:23:25.801Z,0.70
2022-10-02T16:28:22.602Z,1.10
2022-10-02T16:33:15.161Z,4.20
2022-10-02T16:38:01.328Z,1.43
2022-10-02T16:42:55.235Z,1.23
2022-10-02T16:47:49.504Z,1.90
2022-10-02T16:52:40.269Z,0.40
2022-10-02T16:57:32.066Z,0.53
2022-10-02T17:02:22.721Z,2.13
2022-10-02T17:07:26.606Z,0.40
2022-10-02T17:12:21.361Z,1.53
2022-10-02T17:17:12.327Z,4.67
2022-10-02T17:22:02.300Z,0.80
2022-10-02T17:26:52.354Z,1.67
2022-10-02T17:31:42.315Z,0.70
2022-10-02T17:36:34.905Z,3.30
2022-10-02T17:41:51.755Z,1.40
2022-10-02T17:46:50.954Z,0.93
2022-10-02T17:52:23.524Z,1.70
2022-10-02T18:03:37.008Z,2.17
2022-10-02T18:08:35.040Z,1.13
2022-10-02T18:13:46.953Z,1.67
2022-10-02T18:18:40.635Z,2.40
2022-10-02T18:23:46.621Z,8.33
2022-10-02T18:28:46.161Z,4.20
2022-10-02T18:33:52.967Z,1.53
2022-10-02T18:38:48.565Z,1.70
2022-10-02T18:43:50.561Z,3.77
2022-10-02T18:48:57.888Z,3.03
2022-10-02T18:54:11.944Z,0.97
2022-10-02T18:59:12.969Z,6.57
2022-10-02T19:04:31.378Z,1.43
2022-10-02T19:09:22.631Z,2.77
2022-10-02T19:14:15.800Z,1.63
2022-10-02T19:19:16.704Z,0.97
2022-10-02T19:24:07.397Z,0.37
2022-10-02T19:28:55.352Z,0.23
2022-10-02T19:33:47.287Z,0.33
2022-10-02T19:38:34.691Z,4.43
2022-10-02T19:43:24.797Z,3.03
2022-10-02T19:48:11.299Z,1.53
2022-10-02T19:52:59.873Z,1.57
2022-10-02T19:57:43.765Z,0.37
2022-10-02T20:02:31.244Z,1.03
2022-10-02T20:07:19.893Z,0.67
2022-10-02T20:12:11.339Z,0.83
2022-10-02T20:17:10.314Z,1.03
2022-10-02T20:21:56.731Z,2.00
2022-10-02T20:26:42.162Z,0.63
2022-10-02T20:31:39.840Z,0.67
2022-10-02T20:36:29.432Z,2.03
2022-10-02T20:41:19.806Z,0.43
2022-10-02T20:46:30.016Z,2.10
2022-10-02T20:51:20.217Z,1.33
2022-10-02T20:56:11.316Z,0.97
2022-10-02T21:01:27.952Z,0.33
2022-10-02T21:06:47.657Z,0.90
2022-10-02T21:11:57.163Z,4.47
2022-10-02T21:17:21.498Z,2.27
2022-10-02T21:22:30.705Z,1.30
2022-10-02T21:27:41.398Z,0.63
2022-10-02T21:33:00.285Z,1.63
2022-10-02T21:38:02.223Z,2.30
2022-10-02T21:43:24.411Z,2.00
2022-10-02T21:48:41.171Z,1.63
2022-10-02T21:53:56.232Z,3.97
2022-10-02T21:59:10.571Z,4.63
2022-10-02T22:04:22.766Z,2.87
2022-10-02T22:09:29.373Z,2.43
2022-10-02T22:14:15.450Z,2.07
2022-10-02T22:19:06.013Z,1.57
2022-10-02T22:24:09.289Z,2.07
2022-10-02T22:29:00.397Z,1.33
2022-10-02T22:33:58.094Z,3.70
2022-10-02T22:38:45.355Z,1.70
2022-10-02T22:43:34.937Z,2.17
2022-10-02T22:48:28.373Z,1.67
2022-10-02T22:53:16.972Z,4.17
2022-10-02T22:58:05.850Z,1.67
2022-10-02T23:02:55.409Z,0.60
2022-10-02T23:07:46.622Z,1.73
2022-10-02T23:12:38.961Z,2.27
2022-10-02T23:17:29.150Z,0.37
2022-10-02T23:22:22.299Z,0.40
2022-10-02T23:27:13.576Z,0.10
2022-10-02T23:32:05.761Z,0.53
2022-10-02T23:36:51.964Z,0.10
2022-10-02T23:41:47.228Z,0.30
2022-10-02T23:46:37.453Z,0.80
2022-10-02T23:51:31.310Z,0.50
2022-10-02T23:56:40.080Z,0.20
